Time;durP1;ratioP1;P1;durP2;ratioP2;P2;SDS_P1;SDS_P2;PMS_P1;PMS_P2;Temp;Humidity;BMP_temperature;BMP_pressure;BME280_temperature;BME280_humidity;BME280_pressure;Samples;Min_cycle;Max_cycle;Signal;HPM_P1;HPM_P2
2023/05/13 00:00:16;;;;;;;3.33;2.72;;;;;;;;;;5057403;28;20072;-57
2023/05/13 00:02:42;;;;;;;4.60;2.90;;;;;;;;;;5056883;28;20078;-57
2023/05/13 00:05:08;;;;;;;3.85;2.92;;;;;;;;;;5056854;28;20037;-57
2023/05/13 00:07:34;;;;;;;4.70;3.65;;;;;;;;;;5057185;28;20032;-57
2023/05/13 00:10:00;;;;;;;3.50;2.50;;;;;;;;;;5057204;28;20111;-57
2023/05/13 00:12:26;;;;;;;3.38;2.40;;;;;;;;;;5056719;28;20040;-57
2023/05/13 00:14:52;;;;;;;4.38;2.20;;;;;;;;;;5056660;28;20111;-57
2023/05/13 00:17:18;;;;;;;3.13;2.17;;;;;;;;;;5056623;28;20032;-57
2023/05/13 00:19:44;;;;;;;3.20;2.70;;;;;;;;;;5056758;28;20033;-57
2023/05/13 00:22:10;;;;;;;2.70;2.38;;;;;;;;;;5056292;28;20132;-57
2023/05/13 00:24:36;;;;;;;4.50;2.58;;;;;;;;;;5056729;28;20426;-57
2023/05/13 00:27:02;;;;;;;5.57;2.10;;;;;;;;;;5057213;28;20082;-57
2023/05/13 00:29:30;;;;;;;3.25;2.50;;;;;;;;;;5056449;28;20043;-57
2023/05/13 00:31:56;;;;;;;2.92;2.15;;;;;;;;;;5057182;28;20410;-57
2023/05/13 00:34:23;;;;;;;2.97;2.60;;;;;;;;;;5056845;28;20025;-57
2023/05/13 00:36:49;;;;;;;3.13;2.45;;;;;;;;;;5057116;28;20033;-57
2023/05/13 00:39:15;;;;;;;2.72;2.20;;;;;;;;;;5056145;28;20033;-57
2023/05/13 00:41:41;;;;;;;3.20;2.20;;;;;;;;;;5056159;28;20056;-57
2023/05/13 00:44:07;;;;;;;3.60;2.38;;;;;;;;;;5056070;28;20107;-57
2023/05/13 00:46:33;;;;;;;3.00;2.25;;;;;;;;;;5055768;28;20049;-57
2023/05/13 00:49:00;;;;;;;3.13;2.20;;;;;;;;;;5056102;28;20036;-57
2023/05/13 00:51:26;;;;;;;3.42;2.35;;;;;;;;;;5056727;28;20119;-57
2023/05/13 00:53:52;;;;;;;3.38;2.20;;;;;;;;;;5056709;28;20021;-57
2023/05/13 00:56:21;;;;;;;6.57;2.70;;;;;;;;;;5055988;28;20112;-57
2023/05/13 00:58:47;;;;;;;4.07;2.42;;;;;;;;;;5056035;28;20033;-57
2023/05/13 01:01:16;;;;;;;5.72;2.53;;;;;;;;;;5055813;28;20075;-57
2023/05/13 01:03:48;;;;;;;4.30;2.55;;;;;;;;;;5055760;28;20025;-57
2023/05/13 01:06:17;;;;;;;3.03;2.10;;;;;;;;;;5056283;28;20025;-57
2023/05/13 01:08:50;;;;;;;5.25;2.80;;;;;;;;;;5055640;28;20029;-57
2023/05/13 01:11:22;;;;;;;3.17;2.22;;;;;;;;;;5055668;28;20466;-57
2023/05/13 01:13:49;;;;;;;2.85;2.08;;;;;;;;;;5055618;28;20061;-57
2023/05/13 01:16:21;;;;;;;4.20;2.60;;;;;;;;;;5055596;28;20083;-57
2023/05/13 01:18:58;;;;;;;3.50;2.40;;;;;;;;;;5055916;28;20032;-57
2023/05/13 01:21:28;;;;;;;4.57;2.58;;;;;;;;;;5056244;28;20021;-57
2023/05/13 01:23:54;;;;;;;3.35;2.53;;;;;;;;;;5055422;28;20029;-57
2023/05/13 01:26:21;;;;;;;2.97;2.45;;;;;;;;;;5055898;28;20025;-57
2023/05/13 01:28:47;;;;;;;3.13;2.50;;;;;;;;;;5055198;28;20487;-57
2023/05/13 01:31:14;;;;;;;3.45;2.53;;;;;;;;;;5055563;28;20036;-57
2023/05/13 01:33:41;;;;;;;4.00;2.92;;;;;;;;;;5055705;28;20367;-57
2023/05/13 01:36:07;;;;;;;2.75;2.05;;;;;;;;;;5055480;28;20032;-57
2023/05/13 01:38:34;;;;;;;3.72;2.20;;;;;;;;;;5055355;28;20358;-57
2023/05/13 01:41:00;;;;;;;3.97;2.85;;;;;;;;;;5055081;28;20031;-57
2023/05/13 01:43:26;;;;;;;3.53;2.60;;;;;;;;;;5055316;28;20031;-57
2023/05/13 01:45:52;;;;;;;3.28;2.47;;;;;;;;;;5055494;28;20025;-57
2023/05/13 01:48:18;;;;;;;6.05;2.10;;;;;;;;;;5055127;28;20417;-57
2023/05/13 01:50:45;;;;;;;3.00;2.30;;;;;;;;;;5054879;28;20043;-57
2023/05/13 01:53:11;;;;;;;3.22;2.45;;;;;;;;;;5054860;28;20108;-57
2023/05/13 01:55:37;;;;;;;3.22;2.05;;;;;;;;;;5054858;28;20056;-57
2023/05/13 01:58:03;;;;;;;3.17;2.42;;;;;;;;;;5054186;28;20447;-57
2023/05/13 02:00:29;;;;;;;3.83;2.03;;;;;;;;;;5054802;28;20029;-57
2023/05/13 02:02:55;;;;;;;3.13;2.10;;;;;;;;;;5054721;28;20458;-57
2023/05/13 02:05:22;;;;;;;3.00;2.45;;;;;;;;;;5054901;28;20369;-57
2023/05/13 02:07:47;;;;;;;4.10;2.63;;;;;;;;;;5054633;28;20479;-57
2023/05/13 02:10:13;;;;;;;3.50;2.88;;;;;;;;;;5054795;28;20036;-57
2023/05/13 02:12:39;;;;;;;3.63;2.47;;;;;;;;;;5054238;28;20040;-57
2023/05/13 02:15:06;;;;;;;5.70;2.83;;;;;;;;;;5054399;28;20095;-57
2023/05/13 02:17:32;;;;;;;4.10;3.15;;;;;;;;;;5054329;28;20021;-57
2023/05/13 02:19:57;;;;;;;3.40;2.33;;;;;;;;;;5054961;28;20044;-57
2023/05/13 02:22:24;;;;;;;3.10;2.50;;;;;;;;;;5054326;28;20033;-57
2023/05/13 02:24:50;;;;;;;3.72;3.10;;;;;;;;;;5054210;28;20028;-57
2023/05/13 02:27:16;;;;;;;2.88;2.38;;;;;;;;;;5055051;28;20482;-57
2023/05/13 02:29:42;;;;;;;3.05;2.30;;;;;;;;;;5054699;28;20033;-57
2023/05/13 02:32:08;;;;;;;3.17;2.40;;;;;;;;;;5054185;28;20467;-57
2023/05/13 02:34:34;;;;;;;2.53;1.75;;;;;;;;;;5054371;28;20032;-57
2023/05/13 02:37:00;;;;;;;4.13;1.92;;;;;;;;;;5054648;28;20363;-57
2023/05/13 02:39:26;;;;;;;3.33;2.30;;;;;;;;;;5053968;28;20024;-57
2023/05/13 02:41:52;;;;;;;3.60;2.55;;;;;;;;;;5054033;28;20025;-57
2023/05/13 02:44:18;;;;;;;3.30;2.50;;;;;;;;;;5053912;28;20029;-57
2023/05/13 02:46:44;;;;;;;2.55;1.77;;;;;;;;;;5054594;28;20458;-57
2023/05/13 02:49:10;;;;;;;2.65;1.95;;;;;;;;;;5054183;28;20044;-57
2023/05/13 02:51:36;;;;;;;2.70;1.70;;;;;;;;;;5054223;28;20078;-57
2023/05/13 02:54:02;;;;;;;3.40;2.50;;;;;;;;;;5053497;28;20029;-57
2023/05/13 02:56:28;;;;;;;2.65;1.90;;;;;;;;;;5054365;28;20036;-57
2023/05/13 02:58:54;;;;;;;3.25;2.30;;;;;;;;;;5053664;28;20086;-57
2023/05/13 03:01:20;;;;;;;2.63;2.13;;;;;;;;;;5053670;28;20083;-57
2023/05/13 03:03:46;;;;;;;7.00;2.22;;;;;;;;;;5053424;28;20029;-57
2023/05/13 03:06:12;;;;;;;2.83;2.13;;;;;;;;;;5054191;28;20083;-57
2023/05/13 03:08:38;;;;;;;3.97;2.47;;;;;;;;;;5054397;28;20435;-57
2023/05/13 03:11:04;;;;;;;3.65;2.88;;;;;;;;;;5053761;28;20363;-57
2023/05/13 03:13:30;;;;;;;2.92;2.35;;;;;;;;;;5053872;28;20025;-57
2023/05/13 03:15:56;;;;;;;3.35;2.30;;;;;;;;;;5054461;28;20056;-57
2023/05/13 03:18:22;;;;;;;3.72;2.78;;;;;;;;;;5053427;28;20065;-57
2023/05/13 03:20:48;;;;;;;2.95;2.25;;;;;;;;;;5053508;28;20451;-57
2023/05/13 03:23:14;;;;;;;3.92;2.58;;;;;;;;;;5053975;28;20025;-57
2023/05/13 03:25:40;;;;;;;2.85;2.10;;;;;;;;;;5053500;28;20037;-57
2023/05/13 03:28:08;;;;;;;4.50;2.72;;;;;;;;;;5053979;28;20028;-57
2023/05/13 03:30:34;;;;;;;3.70;2.47;;;;;;;;;;5053085;28;20490;-57
2023/05/13 03:33:00;;;;;;;4.57;2.67;;;;;;;;;;5053471;28;20031;-57
2023/05/13 03:35:26;;;;;;;2.78;2.22;;;;;;;;;;5053504;28;20025;-57
2023/05/13 03:37:52;;;;;;;5.07;2.50;;;;;;;;;;5053485;28;20120;-57
2023/05/13 03:40:18;;;;;;;3.90;2.47;;;;;;;;;;5053928;28;20040;-57
2023/05/13 03:42:44;;;;;;;2.80;2.03;;;;;;;;;;5053441;28;20025;-57
2023/05/13 03:45:10;;;;;;;3.50;2.60;;;;;;;;;;5053152;28;20093;-57
2023/05/13 03:47:38;;;;;;;3.15;2.20;;;;;;;;;;5053498;28;20108;-57
2023/05/13 03:50:04;;;;;;;3.08;2.30;;;;;;;;;;5053230;28;20463;-57
2023/05/13 03:52:30;;;;;;;2.33;1.73;;;;;;;;;;5053553;28;20107;-57
2023/05/13 03:54:56;;;;;;;3.25;2.30;;;;;;;;;;5052906;28;20060;-57
2023/05/13 03:57:22;;;;;;;3.03;2.33;;;;;;;;;;5053400;28;20404;-57
2023/05/13 03:59:48;;;;;;;3.42;2.33;;;;;;;;;;5053126;28;20040;-57
2023/05/13 04:02:13;;;;;;;3.30;2.40;;;;;;;;;;5053244;28;20051;-57
2023/05/13 04:04:39;;;;;;;3.00;2.50;;;;;;;;;;5052949;28;20100;-57
2023/05/13 04:07:05;;;;;;;2.85;2.17;;;;;;;;;;5053209;28;20083;-57
2023/05/13 04:09:31;;;;;;;3.00;2.28;;;;;;;;;;5053449;28;20108;-57
2023/05/13 04:11:58;;;;;;;5.40;2.53;;;;;;;;;;5053082;28;20025;-57
2023/05/13 04:14:24;;;;;;;3.10;2.10;;;;;;;;;;5052847;28;20057;-57
2023/05/13 04:16:50;;;;;;;3.55;2.50;;;;;;;;;;5053462;28;20512;-57
2023/05/13 04:19:15;;;;;;;3.05;2.08;;;;;;;;;;5053023;28;20352;-57
2023/05/13 04:21:41;;;;;;;3.10;2.40;;;;;;;;;;5054028;28;20391;-57
2023/05/13 04:24:07;;;;;;;3.60;2.50;;;;;;;;;;5056689;28;20066;-57
2023/05/13 04:26:33;;;;;;;2.90;1.92;;;;;;;;;;5056958;28;20068;-57
2023/05/13 04:28:59;;;;;;;3.45;2.42;;;;;;;;;;5056574;28;20471;-57
2023/05/13 04:31:25;;;;;;;4.30;2.40;;;;;;;;;;5056836;28;20025;-57
2023/05/13 04:33:51;;;;;;;3.28;2.28;;;;;;;;;;5056432;28;20074;-57
2023/05/13 04:36:17;;;;;;;3.13;2.35;;;;;;;;;;5056750;28;20040;-57
2023/05/13 04:38:43;;;;;;;3.10;2.33;;;;;;;;;;5056810;28;20039;-57
2023/05/13 04:41:09;;;;;;;5.38;1.88;;;;;;;;;;5056827;28;20087;-57
2023/05/13 04:43:35;;;;;;;3.67;2.28;;;;;;;;;;5056312;28;20407;-57
2023/05/13 04:46:01;;;;;;;3.53;2.38;;;;;;;;;;5056557;28;20027;-57
2023/05/13 04:48:27;;;;;;;3.22;2.63;;;;;;;;;;5056173;28;20083;-57
2023/05/13 04:50:53;;;;;;;3.55;2.60;;;;;;;;;;5056416;28;20052;-57
2023/05/13 04:53:19;;;;;;;5.60;2.67;;;;;;;;;;5056276;28;20034;-57
2023/05/13 04:55:49;;;;;;;2.83;2.20;;;;;;;;;;5056089;28;20508;-57
2023/05/13 04:58:15;;;;;;;2.88;2.58;;;;;;;;;;5055928;28;20028;-57
2023/05/13 05:00:41;;;;;;;3.35;2.60;;;;;;;;;;5056772;28;20037;-57
2023/05/13 05:03:07;;;;;;;3.53;2.78;;;;;;;;;;5055942;28;20071;-57
2023/05/13 05:05:33;;;;;;;4.82;2.50;;;;;;;;;;5055914;28;20377;-57
2023/05/13 05:07:59;;;;;;;3.03;2.03;;;;;;;;;;5055480;28;20028;-57
2023/05/13 05:10:25;;;;;;;3.65;2.83;;;;;;;;;;5055450;28;20024;-57
2023/05/13 05:12:51;;;;;;;3.70;2.72;;;;;;;;;;5055997;28;20024;-57
2023/05/13 05:15:17;;;;;;;3.85;2.47;;;;;;;;;;5055544;28;20131;-57
2023/05/13 05:17:43;;;;;;;5.68;2.67;;;;;;;;;;5055599;28;20477;-57
2023/05/13 05:20:09;;;;;;;3.47;2.60;;;;;;;;;;5055209;28;20040;-57
2023/05/13 05:22:36;;;;;;;3.10;2.55;;;;;;;;;;5056097;28;20039;-57
2023/05/13 05:25:04;;;;;;;3.35;2.70;;;;;;;;;;5056013;28;20056;-57
2023/05/13 05:27:30;;;;;;;3.05;2.20;;;;;;;;;;5056284;28;20021;-57
2023/05/13 05:29:56;;;;;;;2.70;2.22;;;;;;;;;;5055383;28;20056;-57
2023/05/13 05:32:22;;;;;;;3.72;2.80;;;;;;;;;;5055005;28;20068;-57
2023/05/13 05:34:48;;;;;;;2.97;2.40;;;;;;;;;;5054230;28;20060;-57
2023/05/13 05:37:14;;;;;;;3.55;3.00;;;;;;;;;;5055785;28;20040;-57
2023/05/13 05:39:40;;;;;;;3.10;2.47;;;;;;;;;;5054784;28;20033;-57
2023/05/13 05:42:07;;;;;;;3.53;2.92;;;;;;;;;;5055696;28;20029;-57
2023/05/13 05:44:33;;;;;;;4.40;3.42;;;;;;;;;;5055074;28;20017;-57
2023/05/13 05:46:58;;;;;;;3.75;2.47;;;;;;;;;;5055149;28;20348;-57
2023/05/13 05:49:24;;;;;;;3.42;2.70;;;;;;;;;;5054983;28;20032;-57
2023/05/13 05:51:50;;;;;;;3.88;2.85;;;;;;;;;;5054908;28;20021;-57
2023/05/13 05:54:16;;;;;;;3.45;2.80;;;;;;;;;;5054840;28;20025;-57
2023/05/13 05:56:42;;;;;;;3.38;2.55;;;;;;;;;;5055093;28;20036;-57
2023/05/13 05:59:08;;;;;;;3.05;2.75;;;;;;;;;;5054647;28;20041;-57
2023/05/13 06:01:35;;;;;;;3.75;2.42;;;;;;;;;;5055040;28;20108;-57
2023/05/13 06:04:02;;;;;;;3.55;2.63;;;;;;;;;;5054693;28;20033;-57
2023/05/13 06:06:28;;;;;;;2.90;2.40;;;;;;;;;;5055190;28;20059;-57
2023/05/13 06:08:54;;;;;;;4.88;2.45;;;;;;;;;;5054691;28;20511;-57
2023/05/13 06:11:20;;;;;;;3.60;2.42;;;;;;;;;;5054467;28;20024;-57
2023/05/13 06:13:46;;;;;;;3.60;2.95;;;;;;;;;;5054497;28;20021;-57
2023/05/13 06:16:12;;;;;;;4.00;2.97;;;;;;;;;;5054940;28;20053;-57
2023/05/13 06:18:38;;;;;;;3.85;2.55;;;;;;;;;;5054269;28;20040;-58
2023/05/13 06:21:04;;;;;;;4.30;2.92;;;;;;;;;;5054594;28;20422;-57
2023/05/13 06:23:30;;;;;;;4.43;2.70;;;;;;;;;;5055133;28;20024;-57
2023/05/13 06:25:58;;;;;;;3.92;2.33;;;;;;;;;;5054649;28;20451;-57
2023/05/13 06:28:24;;;;;;;4.13;2.95;;;;;;;;;;5054197;28;20021;-57
2023/05/13 06:30:50;;;;;;;3.53;2.70;;;;;;;;;;5054508;28;20443;-57
2023/05/13 06:33:16;;;;;;;4.60;3.83;;;;;;;;;;5054215;28;20025;-57
2023/05/13 06:35:46;;;;;;;3.90;2.63;;;;;;;;;;5054495;28;20120;-57
2023/05/13 06:38:13;;;;;;;4.10;3.10;;;;;;;;;;5054677;28;20071;-57
2023/05/13 06:40:39;;;;;;;3.50;2.58;;;;;;;;;;5053987;28;20043;-57
2023/05/13 06:43:05;;;;;;;5.88;2.67;;;;;;;;;;5054054;28;20096;-57
2023/05/13 06:45:31;;;;;;;3.38;2.83;;;;;;;;;;5054387;28;20051;-57
2023/05/13 06:47:57;;;;;;;3.80;2.97;;;;;;;;;;5054002;28;20028;-58
2023/05/13 06:50:23;;;;;;;4.88;2.58;;;;;;;;;;5053695;28;20088;-57
2023/05/13 06:52:49;;;;;;;3.75;3.13;;;;;;;;;;5053820;28;20025;-59
2023/05/13 06:55:18;;;;;;;5.22;3.03;;;;;;;;;;5054279;28;20028;-58
2023/05/13 06:57:45;;;;;;;4.65;2.90;;;;;;;;;;5053673;28;20032;-57
2023/05/13 07:00:12;;;;;;;3.17;2.80;;;;;;;;;;5053585;28;20061;-58
2023/05/13 07:02:38;;;;;;;6.38;3.17;;;;;;;;;;5053808;28;20029;-57
2023/05/13 07:05:04;;;;;;;3.00;2.40;;;;;;;;;;5053701;28;20017;-58
2023/05/13 07:07:30;;;;;;;3.60;2.55;;;;;;;;;;5054508;28;20025;-58
2023/05/13 07:09:56;;;;;;;3.17;2.70;;;;;;;;;;5053705;28;20078;-58
2023/05/13 07:12:22;;;;;;;4.15;3.08;;;;;;;;;;5053575;28;20021;-57
2023/05/13 07:14:48;;;;;;;4.00;3.05;;;;;;;;;;5053395;28;20060;-58
2023/05/13 07:17:14;;;;;;;4.47;2.70;;;;;;;;;;5053627;28;20369;-58
2023/05/13 07:19:40;;;;;;;6.05;3.30;;;;;;;;;;5054244;28;20061;-58
2023/05/13 07:22:06;;;;;;;3.85;3.45;;;;;;;;;;5054045;28;20110;-58
2023/05/13 07:24:32;;;;;;;3.75;3.00;;;;;;;;;;5053870;28;20029;-57
2023/05/13 07:26:58;;;;;;;4.13;2.90;;;;;;;;;;5053923;28;20025;-58
2023/05/13 07:29:24;;;;;;;5.05;3.58;;;;;;;;;;5053066;28;20060;-58
2023/05/13 07:31:50;;;;;;;4.10;3.50;;;;;;;;;;5053953;28;20025;-58
2023/05/13 07:34:16;;;;;;;3.80;2.65;;;;;;;;;;5054020;28;20033;-58
2023/05/13 07:36:42;;;;;;;3.10;2.70;;;;;;;;;;5054186;28;20444;-58
2023/05/13 07:39:08;;;;;;;4.22;2.92;;;;;;;;;;5053771;28;20454;-57
2023/05/13 07:41:35;;;;;;;4.15;3.25;;;;;;;;;;5053203;28;20033;-58
2023/05/13 07:44:01;;;;;;;4.03;3.10;;;;;;;;;;5053485;28;20052;-58
2023/05/13 07:46:27;;;;;;;4.13;3.55;;;;;;;;;;5053420;28;20069;-58
2023/05/13 07:48:53;;;;;;;4.60;3.05;;;;;;;;;;5053245;28;20057;-58
2023/05/13 07:51:19;;;;;;;3.45;2.90;;;;;;;;;;5053833;28;20033;-58
2023/05/13 07:53:45;;;;;;;4.45;3.33;;;;;;;;;;5053113;28;20108;-58
2023/05/13 07:56:12;;;;;;;6.53;3.65;;;;;;;;;;5053561;28;20520;-58
2023/05/13 07:58:38;;;;;;;3.70;3.13;;;;;;;;;;5056844;28;20386;-58
2023/05/13 08:01:04;;;;;;;4.25;3.72;;;;;;;;;;5057622;28;20025;-58
2023/05/13 08:03:30;;;;;;;3.38;2.65;;;;;;;;;;5056996;28;20033;-57
2023/05/13 08:05:56;;;;;;;4.75;3.15;;;;;;;;;;5056996;28;20426;-58
2023/05/13 08:08:22;;;;;;;4.88;3.67;;;;;;;;;;5056898;28;20017;-58
2023/05/13 08:10:48;;;;;;;3.15;2.85;;;;;;;;;;5056859;28;20083;-58
2023/05/13 08:13:14;;;;;;;4.80;2.55;;;;;;;;;;5057300;28;20115;-58
2023/05/13 08:15:41;;;;;;;4.05;3.00;;;;;;;;;;5056663;28;20391;-58
2023/05/13 08:18:07;;;;;;;3.38;2.92;;;;;;;;;;5057204;28;20234;-59
2023/05/13 08:20:33;;;;;;;4.50;3.22;;;;;;;;;;5056637;28;20128;-59
2023/05/13 08:23:00;;;;;;;3.70;2.88;;;;;;;;;;5057064;28;20123;-58
2023/05/13 08:25:26;;;;;;;9.23;3.60;;;;;;;;;;5056696;28;20098;-59
2023/05/13 08:27:53;;;;;;;4.93;3.78;;;;;;;;;;5056380;28;20454;-58
2023/05/13 08:30:19;;;;;;;4.68;3.38;;;;;;;;;;5056426;28;20037;-58
2023/05/13 08:32:45;;;;;;;4.63;2.88;;;;;;;;;;5057094;28;20025;-58
2023/05/13 08:35:11;;;;;;;4.63;3.50;;;;;;;;;;5056098;28;20025;-58
2023/05/13 08:37:37;;;;;;;3.58;2.72;;;;;;;;;;5056607;28;20095;-58
2023/05/13 08:40:03;;;;;;;4.72;3.60;;;;;;;;;;5056393;28;20160;-59
2023/05/13 08:42:32;;;;;;;3.45;2.92;;;;;;;;;;5056379;28;20017;-59
2023/05/13 08:44:58;;;;;;;3.83;3.45;;;;;;;;;;5056086;28;20032;-59
2023/05/13 08:47:32;;;;;;;5.10;3.75;;;;;;;;;;5056565;28;20367;-59
2023/05/13 08:49:58;;;;;;;4.00;3.40;;;;;;;;;;5056314;28;20124;-59
2023/05/13 08:52:25;;;;;;;4.55;3.70;;;;;;;;;;5056365;28;20082;-59
2023/05/13 08:54:51;;;;;;;5.72;3.30;;;;;;;;;;5055957;28;20052;-59
2023/05/13 08:57:17;;;;;;;3.65;2.88;;;;;;;;;;5056546;28;20447;-59
2023/05/13 08:59:43;;;;;;;4.18;3.78;;;;;;;;;;5055612;28;20040;-59
2023/05/13 09:02:09;;;;;;;4.03;3.53;;;;;;;;;;5055601;28;20031;-60
2023/05/13 09:04:37;;;;;;;4.35;3.47;;;;;;;;;;5055631;28;20043;-59
2023/05/13 09:07:04;;;;;;;4.60;3.92;;;;;;;;;;5056125;28;20348;-59
2023/05/13 09:09:30;;;;;;;3.78;2.85;;;;;;;;;;5055099;28;20052;-59
2023/05/13 09:11:56;;;;;;;3.42;3.13;;;;;;;;;;5055976;28;20060;-56
2023/05/13 09:14:27;;;;;;;6.53;3.30;;;;;;;;;;5055408;28;20052;-58
2023/05/13 09:16:55;;;;;;;3.53;3.17;;;;;;;;;;5055582;28;20478;-59
2023/05/13 09:19:23;;;;;;;3.67;3.22;;;;;;;;;;5055401;28;20041;-58
2023/05/13 09:21:49;;;;;;;4.60;4.00;;;;;;;;;;5056241;28;20052;-58
2023/05/13 09:24:17;;;;;;;4.00;3.00;;;;;;;;;;5055395;28;20018;-58
2023/05/13 09:26:44;;;;;;;3.90;2.95;;;;;;;;;;5055349;28;20077;-58
2023/05/13 09:29:16;;;;;;;4.10;2.88;;;;;;;;;;5055293;28;20478;-58
2023/05/13 09:31:42;;;;;;;4.43;2.67;;;;;;;;;;5056038;28;20029;-58
2023/05/13 09:34:08;;;;;;;4.18;3.40;;;;;;;;;;5055402;28;20021;-59
2023/05/13 09:36:34;;;;;;;5.75;3.03;;;;;;;;;;5055906;28;20032;-58
2023/05/13 09:39:01;;;;;;;3.47;2.88;;;;;;;;;;5055539;28;20394;-58
2023/05/13 09:41:27;;;;;;;3.78;3.08;;;;;;;;;;5055139;28;20032;-58
2023/05/13 09:43:53;;;;;;;4.18;3.03;;;;;;;;;;5055022;28;20025;-59
2023/05/13 09:46:20;;;;;;;8.38;2.75;;;;;;;;;;5055152;28;20371;-58
2023/05/13 09:48:46;;;;;;;3.20;2.55;;;;;;;;;;5054874;28;20033;-59
2023/05/13 09:51:14;;;;;;;3.47;2.60;;;;;;;;;;5054740;28;20033;-58
2023/05/13 09:53:40;;;;;;;3.42;2.75;;;;;;;;;;5054638;28;20036;-58
2023/05/13 09:56:09;;;;;;;2.85;2.30;;;;;;;;;;5055056;28;20044;-59
2023/05/13 09:58:35;;;;;;;3.97;2.88;;;;;;;;;;5054839;28;20036;-59
2023/05/13 10:01:01;;;;;;;3.80;2.95;;;;;;;;;;5054756;28;20024;-58
2023/05/13 10:03:28;;;;;;;3.78;3.08;;;;;;;;;;5054942;28;20031;-59
2023/05/13 10:05:55;;;;;;;3.90;3.05;;;;;;;;;;5054896;28;20019;-58
2023/05/13 10:08:21;;;;;;;3.85;3.05;;;;;;;;;;5054647;28;20100;-59
2023/05/13 10:10:49;;;;;;;3.50;3.05;;;;;;;;;;5054981;28;20029;-59
2023/05/13 10:13:16;;;;;;;3.45;2.83;;;;;;;;;;5054273;28;20059;-58
2023/05/13 10:15:48;;;;;;;3.30;2.40;;;;;;;;;;5054276;28;20200;-58
2023/05/13 10:18:16;;;;;;;3.15;2.47;;;;;;;;;;5054382;28;20119;-59
2023/05/13 10:20:42;;;;;;;2.95;2.35;;;;;;;;;;5054193;28;20350;-58
2023/05/13 10:23:08;;;;;;;3.05;2.28;;;;;;;;;;5054232;28;20047;-58
2023/05/13 10:25:34;;;;;;;5.50;3.00;;;;;;;;;;5054626;28;20024;-59
2023/05/13 10:28:02;;;;;;;3.50;2.28;;;;;;;;;;5054240;28;20029;-58
2023/05/13 10:30:30;;;;;;;3.20;2.10;;;;;;;;;;5054160;28;20429;-59
2023/05/13 10:32:56;;;;;;;3.42;2.50;;;;;;;;;;5054584;28;20112;-58
2023/05/13 10:35:23;;;;;;;2.83;1.98;;;;;;;;;;5054127;28;20153;-59
2023/05/13 10:38:10;;;;;;;3.10;1.75;;;;;;;;;;5054212;28;20478;-59
2023/05/13 10:40:39;;;;;;;2.40;1.63;;;;;;;;;;5053869;28;20462;-59
2023/05/13 10:43:10;;;;;;;4.28;1.60;;;;;;;;;;5053932;28;20029;-58
2023/05/13 10:45:36;;;;;;;2.30;1.70;;;;;;;;;;5054230;28;20029;-59
2023/05/13 10:48:10;;;;;;;2.33;1.60;;;;;;;;;;5053777;28;20083;-59
2023/05/13 10:50:40;;;;;;;2.58;1.35;;;;;;;;;;5054062;28;20074;-59
2023/05/13 10:53:09;;;;;;;2.78;1.60;;;;;;;;;;5053510;28;20479;-59
2023/05/13 10:55:45;;;;;;;3.13;2.05;;;;;;;;;;5053894;28;20029;-59
2023/05/13 10:58:12;;;;;;;2.13;1.30;;;;;;;;;;5053929;28;20024;-59
2023/05/13 11:00:38;;;;;;;2.90;1.60;;;;;;;;;;5053469;28;20453;-58
2023/05/13 11:03:08;;;;;;;1.92;1.42;;;;;;;;;;5053967;28;20029;-59
2023/05/13 11:05:34;;;;;;;2.47;1.70;;;;;;;;;;5054101;28;20119;-59
2023/05/13 11:08:00;;;;;;;2.80;2.10;;;;;;;;;;5053730;28;20064;-59
2023/05/13 11:10:28;;;;;;;3.15;2.42;;;;;;;;;;5053624;28;20028;-59
2023/05/13 11:13:12;;;;;;;3.22;2.50;;;;;;;;;;5053951;28;20036;-59
2023/05/13 11:15:45;;;;;;;4.05;2.25;;;;;;;;;;5053535;28;20045;-59
2023/05/13 11:18:12;;;;;;;3.95;2.97;;;;;;;;;;5053682;28;20029;-59
2023/05/13 11:20:38;;;;;;;3.28;2.53;;;;;;;;;;5053396;28;20477;-59
2023/05/13 11:23:04;;;;;;;3.70;2.80;;;;;;;;;;5053271;28;20044;-59
2023/05/13 11:25:30;;;;;;;3.28;2.72;;;;;;;;;;5053580;28;20052;-59
2023/05/13 11:27:56;;;;;;;4.47;2.78;;;;;;;;;;5053378;28;20021;-59
2023/05/13 11:30:23;;;;;;;6.25;3.33;;;;;;;;;;5053503;28;20037;-57
2023/05/13 11:32:49;;;;;;;3.00;2.63;;;;;;;;;;5057460;28;20052;-57
2023/05/13 11:35:25;;;;;;;3.67;3.05;;;;;;;;;;5057798;28;20071;-57
2023/05/13 11:37:51;;;;;;;4.25;3.05;;;;;;;;;;5057212;28;20029;-57
2023/05/13 11:40:21;;;;;;;3.58;2.88;;;;;;;;;;5057835;28;20089;-57
2023/05/13 11:42:47;;;;;;;4.15;3.15;;;;;;;;;;5057199;28;20033;-57
2023/05/13 11:45:14;;;;;;;4.88;2.90;;;;;;;;;;5057300;28;20064;-57
2023/05/13 11:47:39;;;;;;;3.40;3.08;;;;;;;;;;5057319;28;20050;-58
2023/05/13 11:50:18;;;;;;;3.33;2.60;;;;;;;;;;5056976;28;20142;-58
2023/05/13 11:52:44;;;;;;;3.47;2.50;;;;;;;;;;5056796;28;20025;-59
2023/05/13 11:55:10;;;;;;;5.25;2.60;;;;;;;;;;5056977;28;20025;-59
2023/05/13 11:57:36;;;;;;;2.25;1.63;;;;;;;;;;5056727;28;20082;-58
2023/05/13 12:00:03;;;;;;;3.30;2.22;;;;;;;;;;5056874;28;20033;-58
2023/05/13 12:02:30;;;;;;;2.50;1.80;;;;;;;;;;5057279;28;20033;-58
2023/05/13 12:05:00;;;;;;;3.30;1.90;;;;;;;;;;5056793;28;20036;-58
2023/05/13 12:07:26;;;;;;;3.03;2.40;;;;;;;;;;5057168;28;20025;-58
2023/05/13 12:09:55;;;;;;;3.22;2.22;;;;;;;;;;5057359;28;20036;-59
2023/05/13 12:12:21;;;;;;;2.50;1.95;;;;;;;;;;5056652;28;20053;-58
2023/05/13 12:14:50;;;;;;;4.10;3.25;;;;;;;;;;5056932;28;20049;-58
2023/05/13 12:17:17;;;;;;;4.60;3.63;;;;;;;;;;5056654;28;20086;-60
2023/05/13 12:20:01;;;;;;;5.40;4.38;;;;;;;;;;5056478;28;20475;-60
2023/05/13 12:22:27;;;;;;;4.15;3.13;;;;;;;;;;5056329;28;20483;-60
2023/05/13 12:24:53;;;;;;;12.65;7.70;;;;;;;;;;5056982;28;20406;-60
2023/05/13 12:27:19;;;;;;;5.18;4.65;;;;;;;;;;5056717;28;20025;-60
2023/05/13 12:29:46;;;;;;;3.60;2.85;;;;;;;;;;5057294;28;20048;-60
2023/05/13 12:32:16;;;;;;;3.40;2.08;;;;;;;;;;5056252;28;20112;-60
2023/05/13 12:34:47;;;;;;;3.42;2.70;;;;;;;;;;5056109;28;20023;-60
2023/05/13 12:37:13;;;;;;;3.85;3.00;;;;;;;;;;5056871;28;20031;-60
2023/05/13 12:39:42;;;;;;;3.13;2.42;;;;;;;;;;5056416;28;20108;-60
2023/05/13 12:42:17;;;;;;;2.83;2.38;;;;;;;;;;5055710;28;20044;-60
2023/05/13 12:44:44;;;;;;;2.67;1.98;;;;;;;;;;5056196;28;20413;-60
2023/05/13 12:47:11;;;;;;;3.75;2.38;;;;;;;;;;5056216;28;20367;-60
2023/05/13 12:49:57;;;;;;;3.38;2.53;;;;;;;;;;5055746;28;20397;-60
2023/05/13 12:52:23;;;;;;;3.38;2.63;;;;;;;;;;5055972;28;20028;-60
2023/05/13 12:54:49;;;;;;;3.72;2.38;;;;;;;;;;5056057;28;20029;-60
2023/05/13 12:57:19;;;;;;;3.95;2.30;;;;;;;;;;5055980;28;20025;-60
2023/05/13 12:59:45;;;;;;;3.35;2.50;;;;;;;;;;5055162;28;20443;-60
2023/05/13 13:02:11;;;;;;;3.67;2.75;;;;;;;;;;5055697;28;20021;-60
2023/05/13 13:04:38;;;;;;;3.15;2.33;;;;;;;;;;5055890;28;20033;-60
2023/05/13 13:07:07;;;;;;;3.40;2.50;;;;;;;;;;5056262;28;20028;-60
2023/05/13 13:09:33;;;;;;;2.92;2.45;;;;;;;;;;5055622;28;20495;-60
2023/05/13 13:11:59;;;;;;;3.42;2.35;;;;;;;;;;5055791;28;20147;-60
2023/05/13 13:14:25;;;;;;;2.90;2.20;;;;;;;;;;5055751;28;20041;-60
2023/05/13 13:16:51;;;;;;;5.05;2.72;;;;;;;;;;5055371;28;20025;-61
2023/05/13 13:19:20;;;;;;;2.60;2.03;;;;;;;;;;5055479;28;20041;-61
2023/05/13 13:21:46;;;;;;;3.97;2.53;;;;;;;;;;5056171;28;20029;-61
2023/05/13 13:24:12;;;;;;;3.30;2.20;;;;;;;;;;5055761;28;20021;-60
2023/05/13 13:26:38;;;;;;;3.05;2.25;;;;;;;;;;5056027;28;20082;-60
2023/05/13 13:29:04;;;;;;;2.78;2.20;;;;;;;;;;5055870;28;20100;-60
2023/05/13 13:31:30;;;;;;;3.40;2.50;;;;;;;;;;5055339;28;20032;-60
2023/05/13 13:34:02;;;;;;;2.45;1.92;;;;;;;;;;5058620;28;20029;-60
2023/05/13 13:36:29;;;;;;;3.00;2.05;;;;;;;;;;5056272;28;20033;-60
2023/05/13 13:38:55;;;;;;;5.65;2.00;;;;;;;;;;5056322;28;20056;-60
2023/05/13 13:41:24;;;;;;;3.78;2.28;;;;;;;;;;5056237;28;20028;-60
2023/05/13 13:43:50;;;;;;;3.13;2.05;;;;;;;;;;5055583;28;20030;-60
2023/05/13 13:46:16;;;;;;;2.85;2.00;;;;;;;;;;5055552;28;20032;-61
2023/05/13 13:48:42;;;;;;;2.55;1.70;;;;;;;;;;5055434;28;20462;-60
2023/05/13 13:51:08;;;;;;;2.50;2.08;;;;;;;;;;5054873;28;20029;-60
2023/05/13 13:53:34;;;;;;;2.65;2.08;;;;;;;;;;5054384;28;20090;-59
2023/05/13 13:56:00;;;;;;;2.70;2.20;;;;;;;;;;5054020;28;20043;-59
2023/05/13 13:58:26;;;;;;;3.10;2.50;;;;;;;;;;5055119;28;20025;-59
2023/05/13 14:00:52;;;;;;;3.25;2.60;;;;;;;;;;5054668;28;20120;-59
2023/05/13 14:03:18;;;;;;;3.30;2.42;;;;;;;;;;5054861;28;20033;-59
2023/05/13 14:05:44;;;;;;;3.67;2.90;;;;;;;;;;5054953;28;20022;-59
2023/05/13 14:08:10;;;;;;;2.97;2.38;;;;;;;;;;5054525;28;20087;-59
2023/05/13 14:10:36;;;;;;;3.55;2.40;;;;;;;;;;5054563;28;20032;-60
2023/05/13 14:13:02;;;;;;;2.67;2.08;;;;;;;;;;5054242;28;20021;-59
2023/05/13 14:15:37;;;;;;;3.33;2.40;;;;;;;;;;5071397;28;20659;-59
2023/05/13 14:18:06;;;;;;;6.22;2.60;;;;;;;;;;5071759;28;20436;-59
2023/05/13 14:20:33;;;;;;;3.22;2.42;;;;;;;;;;5070675;28;20033;-59
2023/05/13 14:22:59;;;;;;;2.45;1.95;;;;;;;;;;5071153;28;20024;-59
2023/05/13 14:25:25;;;;;;;3.05;2.47;;;;;;;;;;5071583;28;20045;-60
2023/05/13 14:27:51;;;;;;;5.80;2.75;;;;;;;;;;5070681;28;20036;-60
2023/05/13 14:30:17;;;;;;;3.67;2.38;;;;;;;;;;5070493;28;20055;-60
2023/05/13 14:32:44;;;;;;;2.70;2.05;;;;;;;;;;5070701;28;20025;-60
2023/05/13 14:35:10;;;;;;;3.63;2.72;;;;;;;;;;5070200;28;20089;-60
2023/05/13 14:37:36;;;;;;;5.53;2.65;;;;;;;;;;5071130;28;20058;-60
2023/05/13 14:40:02;;;;;;;2.90;2.42;;;;;;;;;;5070247;28;20565;-60